This is the latest recevied weather packets stored in our database for station/object DC4THF-13. If no packets are shown the sender has not sent any weather packets the latest 10 day(s).
| Time | Temp. | Humidity | Pressure | Rain* | Wind** | Luminosity | Snow |
|---|---|---|---|---|---|---|---|
| 1777759959 | 10.56° C | 69% | 1010.2 hPa | 0 mm | - | - | - |
| 1777759355 | 11.11° C | 69% | 1010.1 hPa | 0 mm | - | - | - |
| 1777758751 | 11.11° C | 68% | 1010.2 hPa | 0 mm | - | - | - |
| 1777758148 | 11.67° C | 68% | 1010.2 hPa | 0 mm | - | - | - |
| 1777757545 | 11.11° C | 67% | 1010.4 hPa | 0 mm | - | - | - |
| 1777756942 | 11.67° C | 66% | 1010.3 hPa | 0 mm | - | - | - |
| 1777756339 | 12.22° C | 67% | 1010.5 hPa | 0 mm | - | - | - |
| 1777755735 | 12.22° C | 66% | 1010.5 hPa | 0 mm | - | - | - |
| 1777755193 | 12.22° C | 64% | 1010.5 hPa | 0 mm | - | - | - |
| 1777754589 | 12.78° C | 60% | 1010.5 hPa | 0 mm | - | - | - |
| 1777753986 | 13.33° C | 60% | 1010.6 hPa | 0 mm | - | - | - |
| 1777753383 | 13.33° C | 60% | 1010.5 hPa | 0 mm | - | - | - |
| 1777752780 | 13.89° C | 58% | 1010.5 hPa | 0 mm | - | - | - |
| 1777752177 | 13.89° C | 56% | 1010.6 hPa | 0 mm | - | - | - |
| 1777751573 | 14.44° C | 55% | 1010.6 hPa | 0 mm | - | - | - |
| 1777750970 | 14.44° C | 55% | 1010.6 hPa | 0 mm | - | - | - |
| 1777750367 | 15° C | 53% | 1010.4 hPa | 0 mm | - | - | - |
| 1777749764 | 16.11° C | 51% | 1010.4 hPa | 0 mm | - | - | - |
| 1777749160 | 16.67° C | 50% | 1010.4 hPa | 0 mm | - | - | - |
| 1777748557 | 17.22° C | 49% | 1010.3 hPa | 0 mm | - | - | - |
| 1777747954 | 17.78° C | 42% | 1010.3 hPa | 0 mm | - | - | - |
| 1777747351 | 18.33° C | 41% | 1010 hPa | 0 mm | - | - | - |
| 1777746748 | 19.44° C | 40% | 1009.9 hPa | 0 mm | - | - | - |
| 1777746144 | 20.56° C | 36% | 1009.7 hPa | 0 mm | - | - | - |
| 1777745541 | 22.22° C | 30% | 1009.5 hPa | 0 mm | - | - | - |
* Rain latest hour (hover to see other rain measurements)
** Current wind speed in m/s (hover to see current wind gust speed)